Time;durP1;ratioP1;P1;durP2;ratioP2;P2;SDS_P1;SDS_P2;PMS_P1;PMS_P2;Temp;Humidity;BMP_temperature;BMP_pressure;BME280_temperature;BME280_humidity;BME280_pressure;Samples;Min_cycle;Max_cycle;Signal;HPM_P1;HPM_P2
2022/04/11 00:00:18;;;;;;;;;;;;;;;;;;1282261;23;941;-48
2022/04/11 00:00:48;;;;;;;;;;;;;;;;;;1282000;23;967;-49
2022/04/11 00:01:19;;;;;;;;;;;;;;;;;;1282178;23;850;-47
2022/04/11 00:01:49;;;;;;;;;;;;;;;;;;1282239;23;1031;-46
2022/04/11 00:02:19;;;;;;;;;;;;;;;;;;1282233;23;920;-49
2022/04/11 00:02:50;;;;;;;;;;;;;;;;;;1281916;23;896;-49
2022/04/11 00:03:20;;;;;;;;;;;;;;;;;;1282316;23;901;-48
2022/04/11 00:03:50;;;;;;;;;;;;;;;;;;1282113;23;899;-45
2022/04/11 00:04:21;;;;;;;;;;;;;;;;;;1282337;23;892;-45
2022/04/11 00:04:51;;;;;;;;;;;;;;;;;;1282114;23;971;-45
2022/04/11 00:05:22;;;;;;;;;;;;;;;;;;1281708;23;852;-45
2022/04/11 00:05:53;;;;;;;;;;;;;;;;;;1282174;23;789;-46
2022/04/11 00:06:23;;;;;;;;;;;;;;;;;;1282250;23;928;-48
2022/04/11 00:06:54;;;;;;;;;;;;;;;;;;1282006;23;1039;-48
2022/04/11 00:07:24;;;;;;;;;;;;;;;;;;1282392;23;916;-45
2022/04/11 00:07:55;;;;;;;;;;;;;;;;;;1282043;23;909;-47
2022/04/11 00:08:25;;;;;;;;;;;;;;;;;;1282198;23;876;-46
2022/04/11 00:08:55;;;;;;;;;;;;;;;;;;1281958;23;913;-49
2022/04/11 00:09:26;;;;;;;;;;;;;;;;;;1282279;23;1039;-47
2022/04/11 00:09:56;;;;;;;;;;;;;;;;;;1282096;23;988;-50
2022/04/11 00:10:26;;;;;;;;;;;;;;;;;;1282246;23;1054;-47
2022/04/11 00:10:57;;;;;;;;;;;;;;;;;;1282129;23;921;-48
2022/04/11 00:11:27;;;;;;;;;;;;;;;;;;1282456;23;1122;-46
2022/04/11 00:11:57;;;;;;;;;;;;;;;;;;1281949;23;920;-48
2022/04/11 00:12:34;;;;;;;;;;;;;;;;;;1282311;23;941;-46
2022/04/11 00:13:05;;;;;;;;;;;;;;;;;;1281857;23;961;-47
2022/04/11 00:13:35;;;;;;;;;;;;;;;;;;1282052;23;848;-49
2022/04/11 00:14:06;;;;;;;;;;;;;;;;;;1282021;23;929;-48
2022/04/11 00:14:36;;;;;;;;;;;;;;;;;;1282112;23;1905;-48
2022/04/11 00:15:07;;;;;;;;;;;;;;;;;;1282202;23;938;-47
2022/04/11 00:15:39;;;;;;;;;;;;;;;;;;1281953;23;916;-47
2022/04/11 00:16:09;;;;;;;;;;;;;;;;;;1282070;23;1028;-47
2022/04/11 00:16:40;;;;;;;;;;;;;;;;;;1282254;23;988;-50
2022/04/11 00:17:10;;;;;;;;;;;;;;;;;;1282353;23;981;-49
2022/04/11 00:17:40;;;;;;;;;;;;;;;;;;1282009;23;1000;-48
2022/04/11 00:18:11;;;;;;;;;;;;;;;;;;1282294;23;989;-47
2022/04/11 00:18:41;;;;;;;;;;;;;;;;;;1281890;23;935;-49
2022/04/11 00:19:12;;;;;;;;;;;;;;;;;;1282227;23;876;-48
2022/04/11 00:19:42;;;;;;;;;;;;;;;;;;1282039;23;961;-50
2022/04/11 00:20:12;;;;;;;;;;;;;;;;;;1281627;23;863;-47
2022/04/11 00:20:43;;;;;;;;;;;;;;;;;;1282208;23;1049;-49
2022/04/11 00:21:14;;;;;;;;;;;;;;;;;;1282022;23;940;-47
2022/04/11 00:21:44;;;;;;;;;;;;;;;;;;1282019;23;1028;-46
2022/04/11 00:22:14;;;;;;;;;;;;;;;;;;1282083;23;1086;-48
2022/04/11 00:22:45;;;;;;;;;;;;;;;;;;1282150;23;1028;-53
2022/04/11 00:23:15;;;;;;;;;;;;;;;;;;1282146;23;921;-48
2022/04/11 00:23:45;;;;;;;;;;;;;;;;;;1281976;23;1530;-50
2022/04/11 00:24:15;;;;;;;;;;;;;;;;;;1281955;23;1031;-50
2022/04/11 00:24:46;;;;;;;;;;;;;;;;;;1282195;23;1008;-47
2022/04/11 00:25:16;;;;;;;;;;;;;;;;;;1282044;23;1050;-47
2022/04/11 00:25:46;;;;;;;;;;;;;;;;;;1282009;23;952;-48
2022/04/11 00:26:17;;;;;;;;;;;;;;;;;;1282088;23;846;-45
2022/04/11 00:26:47;;;;;;;;;;;;;;;;;;1282032;23;1023;-49
2022/04/11 00:27:18;;;;;;;;;;;;;;;;;;1282118;23;921;-49
2022/04/11 00:27:49;;;;;;;;;;;;;;;;;;1275048;23;1346;-48
2022/04/11 00:28:19;;;;;;;;;;;;;;;;;;1269413;23;905;-49
2022/04/11 00:28:51;;;;;;;;;;;;;;;;;;1269556;23;1009;-46
2022/04/11 00:29:21;;;;;;;;;;;;;;;;;;1263395;23;1189;-48
2022/04/11 00:29:51;;;;;;;;;;;;;;;;;;1269633;23;940;-45
2022/04/11 00:30:22;;;;;;;;;;;;;;;;;;1275488;23;1096;-48
2022/04/11 00:30:53;;;;;;;;;;;;;;;;;;1275620;23;958;-45
2022/04/11 00:31:23;;;;;;;;;;;;;;;;;;1282184;23;973;-46
2022/04/11 00:31:53;;;;;;;;;;;;;;;;;;1282057;23;913;-48
2022/04/11 00:32:24;;;;;;;;;;;;;;;;;;1282076;23;968;-46
2022/04/11 00:32:54;;;;;;;;;;;;;;;;;;1281959;23;893;-49
2022/04/11 00:33:24;;;;;;;;;;;;;;;;;;1281745;23;1344;-47
2022/04/11 00:33:55;;;;;;;;;;;;;;;;;;1275310;23;1183;-47
2022/04/11 00:34:25;;;;;;;;;;;;;;;;;;1275455;23;1242;-46
2022/04/11 00:34:56;;;;;;;;;;;;;;;;;;1268697;23;1975;-48
2022/04/11 00:35:26;;;;;;;;;;;;;;;;;;1269487;23;933;-49
2022/04/11 00:35:57;;;;;;;;;;;;;;;;;;1269284;23;908;-48
2022/04/11 00:36:27;;;;;;;;;;;;;;;;;;1275764;23;909;-49
2022/04/11 00:36:57;;;;;;;;;;;;;;;;;;1281994;23;981;-52
2022/04/11 00:37:28;;;;;;;;;;;;;;;;;;1282181;23;869;-46
2022/04/11 00:37:58;;;;;;;;;;;;;;;;;;1275335;23;927;-47
2022/04/11 00:38:28;;;;;;;;;;;;;;;;;;1275521;23;1005;-48
2022/04/11 00:38:59;;;;;;;;;;;;;;;;;;1275400;23;929;-46
2022/04/11 00:39:29;;;;;;;;;;;;;;;;;;1269617;23;1236;-46
2022/04/11 00:40:00;;;;;;;;;;;;;;;;;;1269108;23;1107;-50
2022/04/11 00:40:30;;;;;;;;;;;;;;;;;;1269459;23;1029;-49
2022/04/11 00:41:00;;;;;;;;;;;;;;;;;;1257011;23;1636;-48
2022/04/11 00:41:31;;;;;;;;;;;;;;;;;;1263351;23;965;-43
2022/04/11 00:42:11;;;;;;;;;;;;;;;;;;1269241;23;879;-46
2022/04/11 00:42:41;;;;;;;;;;;;;;;;;;1273219;23;946;-48
2022/04/11 00:43:30;;;;;;;;;;;;;;;;;;1282346;23;969;-48
2022/04/11 00:44:01;;;;;;;;;;;;;;;;;;1281309;23;869;-48
2022/04/11 00:44:32;;;;;;;;;;;;;;;;;;1281444;23;1250;-49
2022/04/11 00:45:03;;;;;;;;;;;;;;;;;;1281515;23;940;-48
2022/04/11 00:45:34;;;;;;;;;;;;;;;;;;1275085;23;1054;-50
2022/04/11 00:46:05;;;;;;;;;;;;;;;;;;1275372;23;957;-48
2022/04/11 00:46:37;;;;;;;;;;;;;;;;;;1275143;23;1020;-51
2022/04/11 00:47:07;;;;;;;;;;;;;;;;;;1276372;23;866;-50
2022/04/11 00:47:37;;;;;;;;;;;;;;;;;;1282017;23;853;-47
2022/04/11 00:48:07;;;;;;;;;;;;;;;;;;1275709;23;1100;-48
2022/04/11 00:48:39;;;;;;;;;;;;;;;;;;1269148;23;1063;-48
2022/04/11 00:49:10;;;;;;;;;;;;;;;;;;1269711;23;886;-48
2022/04/11 00:49:40;;;;;;;;;;;;;;;;;;1269045;23;1071;-48
2022/04/11 00:50:11;;;;;;;;;;;;;;;;;;1269758;23;1040;-47
2022/04/11 00:50:42;;;;;;;;;;;;;;;;;;1275110;23;1075;-48
2022/04/11 00:51:17;;;;;;;;;;;;;;;;;;1275776;23;965;-46
2022/04/11 00:51:47;;;;;;;;;;;;;;;;;;1276421;23;1278;-45
2022/04/11 00:52:20;;;;;;;;;;;;;;;;;;1275405;23;1407;-48
2022/04/11 00:52:53;;;;;;;;;;;;;;;;;;1275546;23;985;-46
2022/04/11 00:53:24;;;;;;;;;;;;;;;;;;1275592;23;917;-48
2022/04/11 00:53:56;;;;;;;;;;;;;;;;;;1276089;23;870;-46
2022/04/11 00:54:27;;;;;;;;;;;;;;;;;;1282117;23;908;-47
2022/04/11 00:54:58;;;;;;;;;;;;;;;;;;1282017;23;1939;-45
2022/04/11 00:55:29;;;;;;;;;;;;;;;;;;1275575;23;973;-46
2022/04/11 00:56:00;;;;;;;;;;;;;;;;;;1275402;23;833;-46
2022/04/11 00:56:30;;;;;;;;;;;;;;;;;;1269459;23;902;-45
2022/04/11 00:57:01;;;;;;;;;;;;;;;;;;1269068;23;911;-45
2022/04/11 00:57:32;;;;;;;;;;;;;;;;;;1275787;23;889;-46
2022/04/11 00:58:04;;;;;;;;;;;;;;;;;;1275576;23;1045;-46
2022/04/11 00:58:35;;;;;;;;;;;;;;;;;;1282136;23;949;-46
2022/04/11 00:59:05;;;;;;;;;;;;;;;;;;1282044;23;1114;-47
2022/04/11 00:59:35;;;;;;;;;;;;;;;;;;1282090;23;1323;-48
2022/04/11 01:00:07;;;;;;;;;;;;;;;;;;1281987;23;890;-46
2022/04/11 01:00:39;;;;;;;;;;;;;;;;;;1275377;23;940;-46
2022/04/11 01:01:09;;;;;;;;;;;;;;;;;;1275349;23;1137;-49
2022/04/11 01:01:40;;;;;;;;;;;;;;;;;;1275386;23;1105;-44
2022/04/11 01:02:10;;;;;;;;;;;;;;;;;;1275684;23;1006;-49
2022/04/11 01:02:41;;;;;;;;;;;;;;;;;;1275564;23;1205;-50
2022/04/11 01:03:11;;;;;;;;;;;;;;;;;;1282252;23;1030;-49
2022/04/11 01:03:42;;;;;;;;;;;;;;;;;;1282091;23;1036;-46
2022/04/11 01:04:23;;;;;;;;;;;;;;;;;;1282206;23;965;-46
2022/04/11 01:04:53;;;;;;;;;;;;;;;;;;1281702;23;1150;-46
2022/04/11 01:05:24;;;;;;;;;;;;;;;;;;1282329;23;993;-46
2022/04/11 01:05:54;;;;;;;;;;;;;;;;;;1281934;23;1004;-45
2022/04/11 01:06:25;;;;;;;;;;;;;;;;;;1275466;23;1266;-45
2022/04/11 01:06:56;;;;;;;;;;;;;;;;;;1275383;23;1290;-47
2022/04/11 01:07:26;;;;;;;;;;;;;;;;;;1275703;23;936;-47
2022/04/11 01:08:05;;;;;;;;;;;;;;;;;;1275428;23;1052;-47
2022/04/11 01:08:36;;;;;;;;;;;;;;;;;;1277582;23;945;-46
2022/04/11 01:09:06;;;;;;;;;;;;;;;;;;1281790;23;898;-49
2022/04/11 01:09:37;;;;;;;;;;;;;;;;;;1275301;23;913;-48
2022/04/11 01:10:08;;;;;;;;;;;;;;;;;;1275464;23;1007;-47
2022/04/11 01:10:38;;;;;;;;;;;;;;;;;;1275379;23;1001;-49
2022/04/11 01:11:09;;;;;;;;;;;;;;;;;;1275874;23;961;-49
2022/04/11 01:11:39;;;;;;;;;;;;;;;;;;1275297;23;1446;-47
2022/04/11 01:12:11;;;;;;;;;;;;;;;;;;1274971;23;2219;-47
2022/04/11 01:12:42;;;;;;;;;;;;;;;;;;1275128;23;1294;-47
2022/04/11 01:13:15;;;;;;;;;;;;;;;;;;1269559;23;1231;-47
2022/04/11 01:13:46;;;;;;;;;;;;;;;;;;1270254;23;1017;-49
2022/04/11 01:14:16;;;;;;;;;;;;;;;;;;1275483;23;948;-51
2022/04/11 01:14:46;;;;;;;;;;;;;;;;;;1275130;23;1908;-46
2022/04/11 01:15:17;;;;;;;;;;;;;;;;;;1281949;23;1254;-48
2022/04/11 01:15:54;;;;;;;;;;;;;;;;;;1281255;23;1023;-48
2022/04/11 01:16:30;;;;;;;;;;;;;;;;;;1275571;23;1157;-46
2022/04/11 01:17:01;;;;;;;;;;;;;;;;;;1269230;23;1215;-50
2022/04/11 01:17:33;;;;;;;;;;;;;;;;;;1269413;23;1168;-47
2022/04/11 01:18:04;;;;;;;;;;;;;;;;;;1270845;23;849;-48
2022/04/11 01:18:35;;;;;;;;;;;;;;;;;;1276353;23;838;-46
2022/04/11 01:19:07;;;;;;;;;;;;;;;;;;1275137;23;1136;-46
2022/04/11 01:19:37;;;;;;;;;;;;;;;;;;1274914;23;1132;-48
2022/04/11 01:20:08;;;;;;;;;;;;;;;;;;1275556;23;890;-48
2022/04/11 01:20:38;;;;;;;;;;;;;;;;;;1275490;23;920;-49
2022/04/11 01:21:10;;;;;;;;;;;;;;;;;;1269756;23;1239;-50
2022/04/11 01:21:41;;;;;;;;;;;;;;;;;;1269320;23;1326;-51
2022/04/11 01:22:11;;;;;;;;;;;;;;;;;;1269165;23;1073;-49
2022/04/11 01:22:43;;;;;;;;;;;;;;;;;;1263361;23;1208;-51
2022/04/11 01:23:13;;;;;;;;;;;;;;;;;;1269424;23;1027;-51
2022/04/11 01:23:43;;;;;;;;;;;;;;;;;;1269241;23;958;-49
2022/04/11 01:24:15;;;;;;;;;;;;;;;;;;1269711;23;1374;-49
2022/04/11 01:24:46;;;;;;;;;;;;;;;;;;1268884;23;1202;-46
2022/04/11 01:25:18;;;;;;;;;;;;;;;;;;1269602;23;1008;-49
2022/04/11 01:25:53;;;;;;;;;;;;;;;;;;1263866;23;1144;-50
2022/04/11 01:26:25;;;;;;;;;;;;;;;;;;1264827;23;1502;-48
2022/04/11 01:26:56;;;;;;;;;;;;;;;;;;1268759;23;866;-49
2022/04/11 01:27:27;;;;;;;;;;;;;;;;;;1270399;23;1298;-51
2022/04/11 01:27:59;;;;;;;;;;;;;;;;;;1275786;23;918;-54
2022/04/11 01:28:30;;;;;;;;;;;;;;;;;;1281804;23;1120;-49
2022/04/11 01:29:02;;;;;;;;;;;;;;;;;;1275320;23;1206;-50
2022/04/11 01:29:32;;;;;;;;;;;;;;;;;;1275728;23;1506;-48
2022/04/11 01:30:04;;;;;;;;;;;;;;;;;;1269197;23;1187;-50
2022/04/11 01:30:39;;;;;;;;;;;;;;;;;;1269145;23;1348;-50
2022/04/11 01:31:09;;;;;;;;;;;;;;;;;;1269429;23;2131;-48
2022/04/11 01:31:39;;;;;;;;;;;;;;;;;;1270364;23;907;-46
2022/04/11 01:32:10;;;;;;;;;;;;;;;;;;1269481;23;1302;-49
2022/04/11 01:32:40;;;;;;;;;;;;;;;;;;1275386;23;959;-49
2022/04/11 01:33:15;;;;;;;;;;;;;;;;;;1275627;23;980;-50
2022/04/11 01:33:46;;;;;;;;;;;;;;;;;;1270035;23;1446;-49
2022/04/11 01:34:16;;;;;;;;;;;;;;;;;;1268742;23;1003;-48
2022/04/11 01:34:46;;;;;;;;;;;;;;;;;;1268950;23;1905;-49
2022/04/11 01:35:18;;;;;;;;;;;;;;;;;;1269728;23;887;-46
2022/04/11 01:35:48;;;;;;;;;;;;;;;;;;1275317;23;1163;-47
2022/04/11 01:36:19;;;;;;;;;;;;;;;;;;1282004;23;885;-47
2022/04/11 01:36:50;;;;;;;;;;;;;;;;;;1275183;23;1356;-47
2022/04/11 01:37:20;;;;;;;;;;;;;;;;;;1275343;23;963;-49
2022/04/11 01:37:51;;;;;;;;;;;;;;;;;;1263030;23;1124;-47
2022/04/11 01:38:21;;;;;;;;;;;;;;;;;;1269689;23;953;-48
2022/04/11 01:38:51;;;;;;;;;;;;;;;;;;1275250;23;1047;-47
2022/04/11 01:39:22;;;;;;;;;;;;;;;;;;1275783;23;964;-49
2022/04/11 01:39:52;;;;;;;;;;;;;;;;;;1275261;23;1092;-49
2022/04/11 01:40:22;;;;;;;;;;;;;;;;;;1275619;23;962;-47
2022/04/11 01:40:54;;;;;;;;;;;;;;;;;;1268962;23;1215;-46
2022/04/11 01:41:24;;;;;;;;;;;;;;;;;;1275066;23;930;-50
2022/04/11 01:41:55;;;;;;;;;;;;;;;;;;1269232;23;1585;-48
2022/04/11 01:42:26;;;;;;;;;;;;;;;;;;1263413;23;1117;-46
2022/04/11 01:42:56;;;;;;;;;;;;;;;;;;1269181;23;973;-47
2022/04/11 01:43:26;;;;;;;;;;;;;;;;;;1269479;23;872;-46
2022/04/11 01:43:58;;;;;;;;;;;;;;;;;;1269230;23;1299;-46
2022/04/11 01:44:28;;;;;;;;;;;;;;;;;;1275494;23;1244;-47
2022/04/11 01:44:59;;;;;;;;;;;;;;;;;;1275321;23;900;-50
2022/04/11 01:45:29;;;;;;;;;;;;;;;;;;1275631;23;926;-45
2022/04/11 01:46:00;;;;;;;;;;;;;;;;;;1281265;23;1247;-46
2022/04/11 01:46:42;;;;;;;;;;;;;;;;;;1275356;23;1164;-46
2022/04/11 01:47:16;;;;;;;;;;;;;;;;;;1269396;23;1128;-47
2022/04/11 01:47:48;;;;;;;;;;;;;;;;;;1262992;23;1204;-46
2022/04/11 01:48:19;;;;;;;;;;;;;;;;;;1264974;23;1259;-48
2022/04/11 01:48:50;;;;;;;;;;;;;;;;;;1269050;23;1653;-44
2022/04/11 01:49:20;;;;;;;;;;;;;;;;;;1269610;23;1167;-45
2022/04/11 01:49:51;;;;;;;;;;;;;;;;;;1275237;23;1055;-49
2022/04/11 01:50:21;;;;;;;;;;;;;;;;;;1275626;23;948;-43
2022/04/11 01:50:51;;;;;;;;;;;;;;;;;;1275056;23;1468;-46
2022/04/11 01:51:21;;;;;;;;;;;;;;;;;;1281905;23;956;-45
2022/04/11 01:51:52;;;;;;;;;;;;;;;;;;1281312;23;993;-46
2022/04/11 01:52:22;;;;;;;;;;;;;;;;;;1275561;23;950;-46
2022/04/11 01:52:52;;;;;;;;;;;;;;;;;;1275355;23;940;-47
2022/04/11 01:53:23;;;;;;;;;;;;;;;;;;1275657;23;852;-46
2022/04/11 01:53:53;;;;;;;;;;;;;;;;;;1268963;23;1311;-48
2022/04/11 01:54:24;;;;;;;;;;;;;;;;;;1269293;23;1119;-48
2022/04/11 01:54:54;;;;;;;;;;;;;;;;;;1262834;23;1897;-46
2022/04/11 01:55:25;;;;;;;;;;;;;;;;;;1263109;23;839;-47
2022/04/11 01:55:55;;;;;;;;;;;;;;;;;;1262876;23;1378;-47
2022/04/11 01:56:26;;;;;;;;;;;;;;;;;;1262996;23;1236;-48
2022/04/11 01:56:57;;;;;;;;;;;;;;;;;;1269184;23;1147;-47
2022/04/11 01:57:28;;;;;;;;;;;;;;;;;;1269707;23;1267;-47
2022/04/11 01:57:59;;;;;;;;;;;;;;;;;;1269112;23;1299;-46
2022/04/11 01:58:29;;;;;;;;;;;;;;;;;;1269618;23;917;-49
2022/04/11 01:59:00;;;;;;;;;;;;;;;;;;1269119;23;1211;-45
2022/04/11 01:59:30;;;;;;;;;;;;;;;;;;1269450;23;1270;-45
2022/04/11 02:00:02;;;;;;;;;;;;;;;;;;1268969;23;1302;-46
2022/04/11 02:00:32;;;;;;;;;;;;;;;;;;1263265;23;1451;-49
2022/04/11 02:01:05;;;;;;;;;;;;;;;;;;1257441;23;1584;-47
2022/04/11 02:01:38;;;;;;;;;;;;;;;;;;1264527;23;980;-46
2022/04/11 02:02:08;;;;;;;;;;;;;;;;;;1270167;23;1024;-46
2022/04/11 02:02:38;;;;;;;;;;;;;;;;;;1275794;23;902;-46
2022/04/11 02:03:09;;;;;;;;;;;;;;;;;;1275538;23;1316;-45
2022/04/11 02:03:39;;;;;;;;;;;;;;;;;;1274598;23;948;-47
2022/04/11 02:04:10;;;;;;;;;;;;;;;;;;1269169;23;1200;-49
2022/04/11 02:04:40;;;;;;;;;;;;;;;;;;1269378;23;1279;-47
2022/04/11 02:05:11;;;;;;;;;;;;;;;;;;1269205;23;937;-47
2022/04/11 02:05:42;;;;;;;;;;;;;;;;;;1263359;23;1392;-47
2022/04/11 02:06:13;;;;;;;;;;;;;;;;;;1263308;23;1570;-47
2022/04/11 02:06:43;;;;;;;;;;;;;;;;;;1269137;23;986;-48
2022/04/11 02:07:13;;;;;;;;;;;;;;;;;;1269427;23;1084;-47
2022/04/11 02:07:44;;;;;;;;;;;;;;;;;;1268919;23;1146;-45
2022/04/11 02:08:15;;;;;;;;;;;;;;;;;;1269220;23;1239;-46
2022/04/11 02:08:45;;;;;;;;;;;;;;;;;;1262971;23;1185;-46
2022/04/11 02:09:18;;;;;;;;;;;;;;;;;;1263992;23;1313;-48
2022/04/11 02:09:49;;;;;;;;;;;;;;;;;;1269279;23;968;-45
2022/04/11 02:10:20;;;;;;;;;;;;;;;;;;1263735;23;1264;-45
2022/04/11 02:10:50;;;;;;;;;;;;;;;;;;1268944;23;2199;-47
2022/04/11 02:11:20;;;;;;;;;;;;;;;;;;1269049;23;925;-48
2022/04/11 02:11:51;;;;;;;;;;;;;;;;;;1262934;23;1196;-46
2022/04/11 02:12:21;;;;;;;;;;;;;;;;;;1269582;23;1013;-46
2022/04/11 02:12:52;;;;;;;;;;;;;;;;;;1275210;23;1060;-47
2022/04/11 02:13:22;;;;;;;;;;;;;;;;;;1275525;23;976;-48
2022/04/11 02:13:52;;;;;;;;;;;;;;;;;;1281698;23;1029;-48
2022/04/11 02:14:22;;;;;;;;;;;;;;;;;;1275397;23;1040;-46
2022/04/11 02:14:53;;;;;;;;;;;;;;;;;;1268954;23;1905;-44
2022/04/11 02:15:23;;;;;;;;;;;;;;;;;;1269421;23;1049;-46
2022/04/11 02:15:53;;;;;;;;;;;;;;;;;;1268957;23;1166;-47
2022/04/11 02:16:24;;;;;;;;;;;;;;;;;;1269235;23;1306;-48
2022/04/11 02:16:54;;;;;;;;;;;;;;;;;;1269151;23;1250;-46
2022/04/11 02:17:25;;;;;;;;;;;;;;;;;;1263166;23;1239;-47
2022/04/11 02:17:55;;;;;;;;;;;;;;;;;;1263245;23;947;-46
2022/04/11 02:18:27;;;;;;;;;;;;;;;;;;1262667;23;1283;-46
2022/04/11 02:18:57;;;;;;;;;;;;;;;;;;1263646;23;1235;-46
2022/04/11 02:19:27;;;;;;;;;;;;;;;;;;1263358;23;1132;-45
2022/04/11 02:19:58;;;;;;;;;;;;;;;;;;1263705;23;1148;-45
2022/04/11 02:20:29;;;;;;;;;;;;;;;;;;1263847;23;1137;-45
2022/04/11 02:21:00;;;;;;;;;;;;;;;;;;1269946;23;926;-44
2022/04/11 02:21:30;;;;;;;;;;;;;;;;;;1275841;23;991;-46
2022/04/11 02:22:03;;;;;;;;;;;;;;;;;;1276307;23;890;-45
2022/04/11 02:22:47;;;;;;;;;;;;;;;;;;1282420;23;932;-47
2022/04/11 02:23:18;;;;;;;;;;;;;;;;;;1282571;23;1009;-47
2022/04/11 02:23:48;;;;;;;;;;;;;;;;;;1282205;23;910;-47
2022/04/11 02:24:18;;;;;;;;;;;;;;;;;;1282487;23;999;-47
2022/04/11 02:24:49;;;;;;;;;;;;;;;;;;1275490;23;1171;-48
2022/04/11 02:25:21;;;;;;;;;;;;;;;;;;1275906;23;1285;-46
2022/04/11 02:25:51;;;;;;;;;;;;;;;;;;1275204;23;1145;-45
2022/04/11 02:26:22;;;;;;;;;;;;;;;;;;1275647;23;1135;-46
2022/04/11 02:26:52;;;;;;;;;;;;;;;;;;1275900;23;1026;-48
2022/04/11 02:27:22;;;;;;;;;;;;;;;;;;1269576;23;1352;-47
2022/04/11 02:27:57;;;;;;;;;;;;;;;;;;1269423;23;1263;-47
2022/04/11 02:28:28;;;;;;;;;;;;;;;;;;1281863;23;1169;-47
2022/04/11 02:28:58;;;;;;;;;;;;;;;;;;1275610;23;1147;-47
2022/04/11 02:29:29;;;;;;;;;;;;;;;;;;1268698;23;1277;-45
2022/04/11 02:30:00;;;;;;;;;;;;;;;;;;1269607;23;1395;-47
2022/04/11 02:30:30;;;;;;;;;;;;;;;;;;1269691;23;1020;-47
2022/04/11 02:31:00;;;;;;;;;;;;;;;;;;1275784;23;981;-45
2022/04/11 02:31:32;;;;;;;;;;;;;;;;;;1275564;23;1290;-45
2022/04/11 02:32:03;;;;;;;;;;;;;;;;;;1269644;23;2104;-45
2022/04/11 02:32:33;;;;;;;;;;;;;;;;;;1269783;23;1041;-43
2022/04/11 02:33:04;;;;;;;;;;;;;;;;;;1263543;23;1470;-45
2022/04/11 02:33:34;;;;;;;;;;;;;;;;;;1269376;23;1032;-45
2022/04/11 02:34:05;;;;;;;;;;;;;;;;;;1275343;23;1322;-45
2022/04/11 02:34:35;;;;;;;;;;;;;;;;;;1275534;23;1238;-46
2022/04/11 02:35:06;;;;;;;;;;;;;;;;;;1269321;23;1924;-44
2022/04/11 02:35:37;;;;;;;;;;;;;;;;;;1269505;23;999;-45
2022/04/11 02:36:07;;;;;;;;;;;;;;;;;;1263620;23;1314;-46
2022/04/11 02:36:38;;;;;;;;;;;;;;;;;;1263621;23;1227;-46
2022/04/11 02:37:08;;;;;;;;;;;;;;;;;;1269729;23;930;-46
2022/04/11 02:37:38;;;;;;;;;;;;;;;;;;1263497;23;914;-42
2022/04/11 02:38:09;;;;;;;;;;;;;;;;;;1275591;23;1278;-45
2022/04/11 02:38:40;;;;;;;;;;;;;;;;;;1269473;23;1204;-45
2022/04/11 02:39:11;;;;;;;;;;;;;;;;;;1275910;23;1183;-44
2022/04/11 02:39:41;;;;;;;;;;;;;;;;;;1269788;23;1182;-45
2022/04/11 02:40:13;;;;;;;;;;;;;;;;;;1269589;23;1022;-45
2022/04/11 02:40:50;;;;;;;;;;;;;;;;;;1268708;23;1079;-45
2022/04/11 02:41:27;;;;;;;;;;;;;;;;;;1269603;23;1402;-44
2022/04/11 02:41:59;;;;;;;;;;;;;;;;;;1269683;23;1401;-44
2022/04/11 02:42:30;;;;;;;;;;;;;;;;;;1265153;23;1309;-45
2022/04/11 02:43:08;;;;;;;;;;;;;;;;;;1265713;23;1059;-45
2022/04/11 02:43:42;;;;;;;;;;;;;;;;;;1263298;23;1415;-44
2022/04/11 02:44:14;;;;;;;;;;;;;;;;;;1266269;23;1351;-44
2022/04/11 02:44:45;;;;;;;;;;;;;;;;;;1264648;23;1116;-45
2022/04/11 02:45:16;;;;;;;;;;;;;;;;;;1264096;23;1242;-45
2022/04/11 02:45:46;;;;;;;;;;;;;;;;;;1269168;23;1129;-44
2022/04/11 02:46:20;;;;;;;;;;;;;;;;;;1275824;23;1390;-46
2022/04/11 02:46:51;;;;;;;;;;;;;;;;;;1275560;23;1166;-41
2022/04/11 02:47:21;;;;;;;;;;;;;;;;;;1275812;23;1091;-47
2022/04/11 02:47:53;;;;;;;;;;;;;;;;;;1269374;23;1021;-44
2022/04/11 02:48:23;;;;;;;;;;;;;;;;;;1269095;23;1112;-45
2022/04/11 02:49:00;;;;;;;;;;;;;;;;;;1269458;23;1120;-44
2022/04/11 02:49:35;;;;;;;;;;;;;;;;;;1272051;23;1303;-45
2022/04/11 02:50:25;;;;;;;;;;;;;;;;;;1275152;23;1681;-45
2022/04/11 02:51:09;;;;;;;;;;;;;;;;;;1275770;23;1369;-44
2022/04/11 02:51:47;;;;;;;;;;;;;;;;;;1275636;23;1274;-46
2022/04/11 02:52:21;;;;;;;;;;;;;;;;;;1269576;23;1263;-44
2022/04/11 02:52:53;;;;;;;;;;;;;;;;;;1265998;23;1269;-47
2022/04/11 02:53:23;;;;;;;;;;;;;;;;;;1274884;23;985;-45
2022/04/11 02:53:53;;;;;;;;;;;;;;;;;;1263168;23;1330;-45
2022/04/11 02:54:24;;;;;;;;;;;;;;;;;;1263567;23;1231;-46
2022/04/11 02:54:55;;;;;;;;;;;;;;;;;;1269399;23;1954;-45
2022/04/11 02:55:26;;;;;;;;;;;;;;;;;;1263446;23;1158;-46
2022/04/11 02:55:56;;;;;;;;;;;;;;;;;;1263586;23;1056;-45
2022/04/11 02:56:27;;;;;;;;;;;;;;;;;;1263235;23;1634;-49
2022/04/11 02:56:57;;;;;;;;;;;;;;;;;;1257722;23;1308;-46
2022/04/11 02:57:29;;;;;;;;;;;;;;;;;;1257454;23;1132;-46
2022/04/11 02:57:59;;;;;;;;;;;;;;;;;;1263648;23;1374;-49
2022/04/11 02:58:29;;;;;;;;;;;;;;;;;;1269614;23;1100;-48
2022/04/11 02:59:00;;;;;;;;;;;;;;;;;;1269709;23;1274;-47
2022/04/11 02:59:35;;;;;;;;;;;;;;;;;;1275862;23;958;-47
2022/04/11 03:00:07;;;;;;;;;;;;;;;;;;1269377;23;1565;-47
2022/04/11 03:00:38;;;;;;;;;;;;;;;;;;1264534;23;1226;-46
2022/04/11 03:01:08;;;;;;;;;;;;;;;;;;1269817;23;1335;-48
2022/04/11 03:01:40;;;;;;;;;;;;;;;;;;1269384;23;1355;-46
2022/04/11 03:02:12;;;;;;;;;;;;;;;;;;1270442;23;1464;-49
2022/04/11 03:02:43;;;;;;;;;;;;;;;;;;1269979;23;1360;-46
2022/04/11 03:03:13;;;;;;;;;;;;;;;;;;1275632;23;962;-46
2022/04/11 03:03:46;;;;;;;;;;;;;;;;;;1269233;23;1446;-46
2022/04/11 03:04:17;;;;;;;;;;;;;;;;;;1264063;23;1242;-48
2022/04/11 03:05:12;;;;;;;;;;;;;;;;;;1269610;23;1290;-46
2022/04/11 03:05:45;;;;;;;;;;;;;;;;;;1263255;23;1313;-47
2022/04/11 03:06:16;;;;;;;;;;;;;;;;;;1262850;23;1145;-46
2022/04/11 03:06:49;;;;;;;;;;;;;;;;;;1257369;23;1355;-47
2022/04/11 03:07:20;;;;;;;;;;;;;;;;;;1259227;23;1255;-47
2022/04/11 03:07:51;;;;;;;;;;;;;;;;;;1264029;23;1117;-46
2022/04/11 03:08:22;;;;;;;;;;;;;;;;;;1263944;23;1232;-45
2022/04/11 03:08:53;;;;;;;;;;;;;;;;;;1269512;23;1084;-47
2022/04/11 03:09:32;;;;;;;;;;;;;;;;;;1271527;23;1252;-47
2022/04/11 03:10:04;;;;;;;;;;;;;;;;;;1271269;23;1403;-47
2022/04/11 03:10:35;;;;;;;;;;;;;;;;;;1269121;23;1300;-48
2022/04/11 03:11:09;;;;;;;;;;;;;;;;;;1263115;23;1133;-47
2022/04/11 03:11:39;;;;;;;;;;;;;;;;;;1264478;23;1208;-44
2022/04/11 03:12:10;;;;;;;;;;;;;;;;;;1264512;23;1364;-46
2022/04/11 03:12:41;;;;;;;;;;;;;;;;;;1269332;23;1188;-46
2022/04/11 03:13:13;;;;;;;;;;;;;;;;;;1263456;23;1298;-46
2022/04/11 03:13:44;;;;;;;;;;;;;;;;;;1263660;23;1291;-48
2022/04/11 03:14:15;;;;;;;;;;;;;;;;;;1264085;23;1160;-46
2022/04/11 03:14:47;;;;;;;;;;;;;;;;;;1269195;23;1972;-45
2022/04/11 03:15:17;;;;;;;;;;;;;;;;;;1269643;23;1180;-45
2022/04/11 03:15:48;;;;;;;;;;;;;;;;;;1263602;23;1225;-43
2022/04/11 03:16:20;;;;;;;;;;;;;;;;;;1269524;23;1589;-45
2022/04/11 03:16:52;;;;;;;;;;;;;;;;;;1263322;23;1300;-47
2022/04/11 03:17:23;;;;;;;;;;;;;;;;;;1264146;23;1207;-46
2022/04/11 03:17:53;;;;;;;;;;;;;;;;;;1268884;23;969;-46
2022/04/11 03:18:25;;;;;;;;;;;;;;;;;;1263735;23;1362;-44
2022/04/11 03:18:55;;;;;;;;;;;;;;;;;;1263565;23;1520;-45
2022/04/11 03:19:26;;;;;;;;;;;;;;;;;;1269441;23;1133;-46
2022/04/11 03:19:57;;;;;;;;;;;;;;;;;;1269587;23;1149;-45
2022/04/11 03:20:27;;;;;;;;;;;;;;;;;;1275689;23;909;-46
2022/04/11 03:20:58;;;;;;;;;;;;;;;;;;1269727;23;1307;-46
2022/04/11 03:21:28;;;;;;;;;;;;;;;;;;1275788;23;1063;-45
2022/04/11 03:22:07;;;;;;;;;;;;;;;;;;1269599;23;1284;-46
2022/04/11 03:22:40;;;;;;;;;;;;;;;;;;1265651;23;1380;-49
2022/04/11 03:23:12;;;;;;;;;;;;;;;;;;1269374;23;1259;-45
2022/04/11 03:23:48;;;;;;;;;;;;;;;;;;1263241;23;1366;-46
2022/04/11 03:24:19;;;;;;;;;;;;;;;;;;1264952;23;910;-46
2022/04/11 03:24:49;;;;;;;;;;;;;;;;;;1270657;23;890;-47
2022/04/11 03:25:20;;;;;;;;;;;;;;;;;;1269411;23;1223;-47
2022/04/11 03:25:51;;;;;;;;;;;;;;;;;;1269357;23;1184;-46
2022/04/11 03:26:25;;;;;;;;;;;;;;;;;;1263327;23;1499;-46
2022/04/11 03:26:55;;;;;;;;;;;;;;;;;;1264247;23;878;-46
2022/04/11 03:27:31;;;;;;;;;;;;;;;;;;1271259;23;1363;-46
2022/04/11 03:28:02;;;;;;;;;;;;;;;;;;1270519;23;1098;-47
2022/04/11 03:28:34;;;;;;;;;;;;;;;;;;1269461;23;1136;-44
2022/04/11 03:29:05;;;;;;;;;;;;;;;;;;1269141;23;1443;-45
2022/04/11 03:29:35;;;;;;;;;;;;;;;;;;1270098;23;955;-46
2022/04/11 03:30:07;;;;;;;;;;;;;;;;;;1275525;23;1029;-45
2022/04/11 03:30:39;;;;;;;;;;;;;;;;;;1269788;23;1578;-45
2022/04/11 03:31:09;;;;;;;;;;;;;;;;;;1275407;23;957;-45
2022/04/11 03:31:40;;;;;;;;;;;;;;;;;;1269323;23;1226;-46
2022/04/11 03:32:13;;;;;;;;;;;;;;;;;;1263904;23;1467;-48
2022/04/11 03:32:44;;;;;;;;;;;;;;;;;;1262633;23;1215;-47
2022/04/11 03:33:16;;;;;;;;;;;;;;;;;;1258701;23;1294;-45
2022/04/11 03:33:47;;;;;;;;;;;;;;;;;;1269777;23;1219;-47
2022/04/11 03:34:17;;;;;;;;;;;;;;;;;;1269773;23;1182;-45
2022/04/11 03:34:49;;;;;;;;;;;;;;;;;;1262932;23;1942;-47
2022/04/11 03:35:20;;;;;;;;;;;;;;;;;;1263329;23;1299;-46
2022/04/11 03:35:50;;;;;;;;;;;;;;;;;;1257174;23;1168;-47
2022/04/11 03:36:21;;;;;;;;;;;;;;;;;;1270173;23;1450;-45
2022/04/11 03:36:52;;;;;;;;;;;;;;;;;;1269186;23;1989;-47
2022/04/11 03:37:24;;;;;;;;;;;;;;;;;;1263766;23;1152;-46
2022/04/11 03:38:06;;;;;;;;;;;;;;;;;;1272130;23;1250;-45
2022/04/11 03:38:37;;;;;;;;;;;;;;;;;;1269372;23;1377;-45
2022/04/11 03:39:08;;;;;;;;;;;;;;;;;;1263372;23;1497;-46